Time;durP1;ratioP1;P1;durP2;ratioP2;P2;SDS_P1;SDS_P2;PMS_P1;PMS_P2;Temp;Humidity;BMP_temperature;BMP_pressure;BME280_temperature;BME280_humidity;BME280_pressure;Samples;Min_cycle;Max_cycle;Signal;HPM_P1;HPM_P2
2023/08/27 00:01:07;;;;;;;3.72;1.77;;;16.30;99.50;;;;;;4979584;28;20378;-78
2023/08/27 00:03:33;;;;;;;6.07;2.20;;;16.30;99.50;;;;;;4964071;28;20033;-78
2023/08/27 00:05:59;;;;;;;3.25;1.80;;;16.30;99.50;;;;;;4979516;28;20060;-78
2023/08/27 00:08:24;;;;;;;3.20;1.77;;;16.30;99.50;;;;;;5013830;28;20436;-78
2023/08/27 00:10:50;;;;;;;3.83;1.60;;;16.40;99.60;;;;;;4979678;28;20450;-77
2023/08/27 00:13:16;;;;;;;4.80;1.63;;;16.40;99.60;;;;;;4995917;28;20032;-77
2023/08/27 00:15:45;;;;;;;2.35;1.33;;;16.40;99.50;;;;;;4979554;28;20072;-78
2023/08/27 00:18:12;;;;;;;3.20;1.40;;;16.40;99.40;;;;;;4979608;28;20033;-77
2023/08/27 00:20:37;;;;;;;2.13;1.23;;;16.40;99.20;;;;;;4995661;28;20439;-77
2023/08/27 00:23:04;;;;;;;4.05;1.40;;;16.40;99.10;;;;;;4979471;28;20026;-77
2023/08/27 00:25:30;;;;;;;3.30;1.27;;;16.40;99.00;;;;;;4979853;28;20033;-77
2023/08/27 00:27:55;;;;;;;4.28;1.30;;;16.30;98.90;;;;;;4979373;28;20026;-78
2023/08/27 00:30:21;;;;;;;2.72;1.48;;;16.30;98.80;;;;;;4995636;28;20025;-78
2023/08/27 00:32:46;;;;;;;4.95;1.33;;;16.30;98.70;;;;;;4995757;28;20057;-78
2023/08/27 00:35:12;;;;;;;3.65;1.17;;;16.30;98.70;;;;;;4979517;28;20351;-77
2023/08/27 00:37:38;;;;;;;3.70;1.58;;;16.30;98.60;;;;;;4979410;28;20482;-78
2023/08/27 00:40:04;;;;;;;2.38;0.90;;;16.30;98.60;;;;;;4996015;28;20033;-81
2023/08/27 00:42:30;;;;;;;1.83;0.80;;;16.30;98.90;;;;;;4979558;28;20034;-82
2023/08/27 00:44:55;;;;;;;2.17;0.80;;;16.30;98.60;;;;;;4995729;28;20029;-81
2023/08/27 00:47:21;;;;;;;2.35;1.00;;;16.20;98.50;;;;;;4995883;28;20029;-81
2023/08/27 00:49:47;;;;;;;2.22;0.80;;;16.30;98.50;;;;;;4963254;28;20462;-81
2023/08/27 00:52:16;;;;;;;2.28;0.90;;;16.30;98.50;;;;;;5013138;28;20022;-81
2023/08/27 00:54:42;;;;;;;3.75;1.10;;;16.20;98.50;;;;;;4995933;28;20030;-82
2023/08/27 00:57:08;;;;;;;2.42;1.25;;;16.20;98.40;;;;;;4982847;28;20033;-82
2023/08/27 00:59:35;;;;;;;4.18;0.90;;;16.20;98.40;;;;;;4999063;28;20061;-82
2023/08/27 01:02:00;;;;;;;2.83;1.23;;;16.20;98.40;;;;;;4982911;28;20026;-81
2023/08/27 01:04:26;;;;;;;2.22;0.88;;;16.20;98.40;;;;;;4998910;28;20033;-81
2023/08/27 01:06:52;;;;;;;2.13;0.90;;;16.20;98.30;;;;;;4982524;28;20037;-80
2023/08/27 01:09:41;;;;;;;2.58;1.15;;;16.20;98.30;;;;;;4998910;28;20049;-81
2023/08/27 01:12:19;;;;;;;2.45;1.05;;;16.20;98.20;;;;;;4998830;28;20014;-81
2023/08/27 01:14:48;;;;;;;3.53;1.00;;;16.20;98.20;;;;;;5016521;28;20030;-81
2023/08/27 01:17:16;;;;;;;1.95;1.00;;;16.20;98.10;;;;;;4982631;28;20026;-81
2023/08/27 01:19:42;;;;;;;1.60;0.88;;;16.10;98.10;;;;;;5016225;28;20029;-81
2023/08/27 01:22:08;;;;;;;2.40;0.90;;;16.20;98.00;;;;;;5016312;28;20030;-81
2023/08/27 01:24:34;;;;;;;2.47;1.33;;;16.20;98.00;;;;;;4982600;28;20028;-81
2023/08/27 01:27:21;;;;;;;2.90;1.05;;;16.20;98.00;;;;;;4999109;28;20109;-81
2023/08/27 01:30:20;;;;;;;1.90;0.85;;;16.10;97.90;;;;;;4998925;28;20045;-81
2023/08/27 01:32:51;;;;;;;2.70;1.10;;;16.20;97.90;;;;;;4998797;28;20398;-81
2023/08/27 01:35:17;;;;;;;2.83;1.25;;;16.10;97.80;;;;;;4998408;28;20026;-82
2023/08/27 01:37:43;;;;;;;3.53;1.25;;;16.10;97.70;;;;;;4982252;28;20030;-82
2023/08/27 01:40:09;;;;;;;3.42;1.25;;;16.10;97.70;;;;;;4982236;28;20030;-82
2023/08/27 01:42:38;;;;;;;3.58;1.10;;;16.10;97.70;;;;;;4982040;28;20034;-82
2023/08/27 01:45:06;;;;;;;3.13;1.13;;;16.10;97.70;;;;;;4998227;28;20036;-81
2023/08/27 01:47:32;;;;;;;2.72;1.30;;;16.10;97.60;;;;;;4982155;28;20117;-82
2023/08/27 01:49:57;;;;;;;1.77;0.90;;;16.10;97.60;;;;;;5014345;28;20109;-82
2023/08/27 01:52:23;;;;;;;2.10;0.98;;;16.10;97.70;;;;;;4998157;28;20124;-82
2023/08/27 01:54:49;;;;;;;2.47;1.02;;;16.10;97.70;;;;;;4981869;28;20072;-82
2023/08/27 01:57:14;;;;;;;4.38;1.48;;;16.10;97.80;;;;;;4998128;28;20041;-82
2023/08/27 01:59:40;;;;;;;2.40;1.10;;;16.10;97.80;;;;;;4998182;28;20474;-82
2023/08/27 02:02:06;;;;;;;2.03;0.90;;;16.10;97.90;;;;;;5014172;28;20030;-81
2023/08/27 02:04:31;;;;;;;6.70;1.40;;;16.10;98.00;;;;;;4981714;28;20030;-82
2023/08/27 02:06:57;;;;;;;3.75;1.30;;;16.10;98.00;;;;;;4965351;28;20133;-82
2023/08/27 02:09:22;;;;;;;2.42;1.25;;;16.00;98.00;;;;;;4981659;28;20121;-82
2023/08/27 02:11:49;;;;;;;6.63;1.45;;;16.00;98.10;;;;;;4981816;28;20056;-82
2023/08/27 02:14:15;;;;;;;3.95;1.30;;;16.00;98.20;;;;;;4997683;28;20099;-82
2023/08/27 02:16:41;;;;;;;2.60;1.23;;;16.00;98.20;;;;;;5015230;28;20466;-81
2023/08/27 02:19:06;;;;;;;4.28;1.50;;;16.00;98.50;;;;;;4997745;28;20034;-81
2023/08/27 02:21:32;;;;;;;2.28;1.08;;;16.00;98.30;;;;;;4997467;28;20026;-82
2023/08/27 02:23:58;;;;;;;1.98;0.98;;;16.00;98.30;;;;;;4981265;28;20032;-82
2023/08/27 02:26:23;;;;;;;2.45;1.00;;;16.00;98.40;;;;;;4965287;28;20429;-82
2023/08/27 02:28:49;;;;;;;2.97;1.00;;;15.90;98.40;;;;;;4997288;28;20045;-81
2023/08/27 02:31:14;;;;;;;5.40;1.55;;;15.90;98.30;;;;;;4981246;28;20030;-82
2023/08/27 02:33:40;;;;;;;2.08;1.15;;;15.90;98.30;;;;;;4997218;28;20437;-81
2023/08/27 02:36:06;;;;;;;3.08;0.93;;;15.90;98.30;;;;;;4997314;28;20030;-81
2023/08/27 02:38:33;;;;;;;2.35;1.10;;;15.80;98.20;;;;;;5014997;28;20092;-82
2023/08/27 02:40:58;;;;;;;2.28;1.10;;;15.80;98.20;;;;;;4980997;28;20042;-81
2023/08/27 02:43:24;;;;;;;3.47;1.33;;;15.80;98.20;;;;;;4997096;28;20532;-82
2023/08/27 02:45:50;;;;;;;2.97;1.30;;;15.80;98.20;;;;;;5014682;28;20112;-81
2023/08/27 02:48:16;;;;;;;3.28;1.50;;;15.80;98.30;;;;;;4997039;28;20101;-82
2023/08/27 02:50:42;;;;;;;2.70;1.20;;;15.70;98.30;;;;;;4996871;28;20026;-81
2023/08/27 02:53:07;;;;;;;2.75;1.20;;;15.70;98.30;;;;;;5014407;28;20493;-80
2023/08/27 02:55:33;;;;;;;2.65;1.20;;;15.70;98.40;;;;;;4980566;28;20133;-80
2023/08/27 02:57:59;;;;;;;2.45;1.10;;;15.70;98.40;;;;;;5014418;28;20033;-82
2023/08/27 03:00:26;;;;;;;2.22;1.00;;;15.70;98.50;;;;;;4996852;28;20040;-81
2023/08/27 03:02:51;;;;;;;2.17;1.02;;;15.70;98.60;;;;;;4980870;28;20044;-81
2023/08/27 03:05:18;;;;;;;2.35;1.00;;;15.80;98.60;;;;;;5013864;28;20042;-81
2023/08/27 03:07:45;;;;;;;2.85;1.30;;;15.80;98.60;;;;;;4980593;28;20046;-80
2023/08/27 03:10:10;;;;;;;4.03;1.10;;;15.80;98.70;;;;;;4997451;28;20088;-80
2023/08/27 03:12:36;;;;;;;2.17;0.80;;;15.80;98.70;;;;;;4996901;28;20492;-81
2023/08/27 03:15:02;;;;;;;2.30;1.00;;;15.80;98.70;;;;;;4996939;28;20478;-81
2023/08/27 03:17:28;;;;;;;2.55;0.80;;;15.80;98.70;;;;;;4980098;28;20034;-80
2023/08/27 03:19:53;;;;;;;1.77;0.80;;;15.70;98.60;;;;;;4997521;28;20104;-81
2023/08/27 03:22:19;;;;;;;3.35;0.90;;;15.70;98.70;;;;;;4980541;28;20034;-80
2023/08/27 03:24:46;;;;;;;2.28;0.80;;;15.70;98.70;;;;;;4996526;28;20517;-80
2023/08/27 03:27:12;;;;;;;1.70;0.77;;;15.70;98.70;;;;;;4980421;28;20018;-81
2023/08/27 03:29:38;;;;;;;2.30;0.80;;;15.70;98.70;;;;;;4996404;28;20018;-81
2023/08/27 03:32:04;;;;;;;5.05;1.60;;;15.70;98.70;;;;;;5012659;28;20026;-83
2023/08/27 03:34:30;;;;;;;2.25;1.08;;;15.70;98.70;;;;;;5012871;28;20057;-81
2023/08/27 03:36:56;;;;;;;1.85;1.00;;;15.70;98.70;;;;;;4996320;28;20084;-83
2023/08/27 03:39:21;;;;;;;3.25;1.30;;;15.70;98.70;;;;;;4980161;28;20517;-81
2023/08/27 03:41:47;;;;;;;2.72;1.27;;;15.70;98.80;;;;;;4980105;28;20034;-81
2023/08/27 03:44:13;;;;;;;3.90;1.48;;;15.60;98.90;;;;;;4980034;28;20124;-80
2023/08/27 03:46:42;;;;;;;3.60;1.73;;;15.50;98.90;;;;;;4996083;28;20030;-82
2023/08/27 03:49:07;;;;;;;4.60;1.95;;;15.40;99.10;;;;;;4980097;28;20049;-81
2023/08/27 03:51:33;;;;;;;3.13;1.75;;;15.30;99.30;;;;;;4979626;28;20076;-82
2023/08/27 03:53:59;;;;;;;6.60;2.17;;;15.30;99.60;;;;;;5012444;28;20430;-82
2023/08/27 03:56:25;;;;;;;5.22;1.95;;;15.20;99.90;;;;;;4995932;28;20490;-81
2023/08/27 03:58:51;;;;;;;2.55;1.65;;;15.20;99.90;;;;;;4979937;28;20037;-81
2023/08/27 04:01:17;;;;;;;5.45;2.38;;;15.20;99.90;;;;;;5014069;28;20040;-84
2023/08/27 04:03:43;;;;;;;3.58;2.05;;;15.10;99.90;;;;;;4980214;28;20442;-83
2023/08/27 04:06:10;;;;;;;5.78;2.50;;;15.10;99.90;;;;;;4979779;28;20069;-83
2023/08/27 04:08:36;;;;;;;4.90;2.38;;;15.00;99.90;;;;;;4980107;28;20030;-87
2023/08/27 04:11:02;;;;;;;3.67;1.88;;;15.00;99.90;;;;;;4995912;28;20022;-84
2023/08/27 04:13:28;;;;;;;4.05;2.08;;;15.00;99.90;;;;;;4979811;28;20030;-82
2023/08/27 04:16:02;;;;;;;4.60;1.83;;;15.00;99.90;;;;;;4995897;28;20030;-83
2023/08/27 04:18:28;;;;;;;5.78;1.90;;;15.00;99.90;;;;;;4996039;28;20059;-83
2023/08/27 04:20:54;;;;;;;3.45;1.95;;;14.90;99.90;;;;;;4979663;28;20022;-81
2023/08/27 04:23:20;;;;;;;3.72;1.95;;;15.00;99.90;;;;;;4963402;28;20120;-82
2023/08/27 04:25:46;;;;;;;5.68;2.40;;;15.00;99.90;;;;;;4995811;28;20113;-84
2023/08/27 04:28:13;;;;;;;10.40;2.58;;;15.00;99.90;;;;;;4995602;28;20030;-79
2023/08/27 04:30:39;;;;;;;4.70;2.15;;;14.90;99.90;;;;;;4965679;28;20049;-79
2023/08/27 04:33:05;;;;;;;6.03;2.25;;;14.90;99.90;;;;;;4983537;28;20030;-79
2023/08/27 04:35:31;;;;;;;6.70;3.35;;;14.80;99.90;;;;;;5017271;28;20061;-80
2023/08/27 04:37:57;;;;;;;5.28;2.67;;;14.90;99.90;;;;;;4983089;28;20386;-81
2023/08/27 04:40:26;;;;;;;4.70;2.10;;;14.90;99.90;;;;;;4983621;28;20363;-80
2023/08/27 04:42:54;;;;;;;3.72;1.60;;;14.90;99.90;;;;;;4983453;28;20045;-85
2023/08/27 04:45:20;;;;;;;4.32;2.15;;;14.90;99.90;;;;;;4983499;28;20077;-86
2023/08/27 04:47:45;;;;;;;5.15;2.22;;;14.90;99.90;;;;;;4974106;28;20019;-86
2023/08/27 04:50:13;;;;;;;3.88;1.65;;;14.90;99.90;;;;;;4964185;28;20025;-84
2023/08/27 04:52:39;;;;;;;3.25;1.50;;;14.90;99.90;;;;;;5015176;28;20030;-86
2023/08/27 04:55:06;;;;;;;5.50;1.80;;;15.00;99.90;;;;;;5017502;28;20076;-87
2023/08/27 04:57:35;;;;;;;3.92;1.48;;;14.90;99.90;;;;;;5011928;28;20045;-87
2023/08/27 05:00:07;;;;;;;6.15;2.22;;;14.90;99.90;;;;;;5004669;28;20018;-85
2023/08/27 05:02:33;;;;;;;2.97;1.35;;;14.90;99.90;;;;;;4975906;28;20109;-86
2023/08/27 05:04:59;;;;;;;3.97;1.50;;;14.90;99.90;;;;;;4973387;28;20026;-84
2023/08/27 05:07:24;;;;;;;5.65;1.70;;;14.90;99.90;;;;;;4970134;28;20529;-87
2023/08/27 05:09:50;;;;;;;3.25;1.50;;;14.90;99.90;;;;;;4976618;28;20058;-87
2023/08/27 05:12:16;;;;;;;7.00;1.80;;;14.90;99.90;;;;;;4967813;28;20030;-87
2023/08/27 05:14:41;;;;;;;3.88;1.20;;;14.90;99.90;;;;;;4999469;28;20034;-88
2023/08/27 05:17:07;;;;;;;3.13;1.48;;;15.00;99.90;;;;;;5000448;28;20497;-88
2023/08/27 05:19:33;;;;;;;3.83;1.30;;;15.00;99.90;;;;;;4996046;28;20034;-87
2023/08/27 05:22:00;;;;;;;5.75;1.38;;;15.00;99.90;;;;;;5002077;28;20082;-86
2023/08/27 05:24:26;;;;;;;3.88;1.13;;;15.10;99.90;;;;;;5000357;28;20049;-87
2023/08/27 05:26:52;;;;;;;2.90;1.00;;;15.10;99.90;;;;;;4984295;28;20475;-86
2023/08/27 05:29:17;;;;;;;5.38;1.50;;;15.10;99.90;;;;;;4983380;28;20026;-87
2023/08/27 05:31:43;;;;;;;3.78;1.13;;;15.10;99.90;;;;;;4984437;28;20033;-87
2023/08/27 05:34:09;;;;;;;4.38;1.50;;;15.10;99.90;;;;;;4983677;28;20474;-86
2023/08/27 05:36:34;;;;;;;4.00;1.40;;;15.10;99.90;;;;;;4985171;28;20030;-87
2023/08/27 05:39:00;;;;;;;3.85;1.45;;;15.10;99.90;;;;;;5000053;28;20040;-86
2023/08/27 05:41:26;;;;;;;5.10;1.48;;;15.10;99.90;;;;;;4999798;28;20022;-87
2023/08/27 05:43:52;;;;;;;3.60;1.15;;;15.10;99.90;;;;;;4983562;28;20053;-84
2023/08/27 05:46:18;;;;;;;3.28;1.15;;;15.20;99.90;;;;;;4983566;28;20026;-85
2023/08/27 05:48:43;;;;;;;3.08;1.00;;;15.20;99.90;;;;;;4983323;28;20033;-87
2023/08/27 05:51:12;;;;;;;5.35;1.33;;;15.10;99.90;;;;;;4985951;28;20374;-87
2023/08/27 05:53:40;;;;;;;4.40;1.02;;;15.20;99.90;;;;;;4995644;28;20014;-86
2023/08/27 05:56:06;;;;;;;4.70;1.08;;;15.20;99.90;;;;;;4973117;28;20026;-85
2023/08/27 05:58:31;;;;;;;3.80;0.95;;;15.20;99.90;;;;;;4972156;28;20032;-86
2023/08/27 06:00:57;;;;;;;2.85;1.20;;;15.20;99.90;;;;;;5003817;28;20033;-85
2023/08/27 06:03:23;;;;;;;2.22;0.82;;;15.30;99.90;;;;;;4999703;28;20025;-84
2023/08/27 06:05:49;;;;;;;3.63;0.80;;;15.30;99.90;;;;;;4965712;28;20042;-84
2023/08/27 06:08:15;;;;;;;4.07;0.85;;;15.30;99.90;;;;;;4998276;28;20076;-85
2023/08/27 06:10:41;;;;;;;3.80;1.05;;;15.30;99.90;;;;;;4998049;28;20025;-86
2023/08/27 06:13:07;;;;;;;2.67;0.70;;;15.40;99.90;;;;;;4998182;28;20026;-84
2023/08/27 06:15:37;;;;;;;1.98;0.52;;;15.40;99.90;;;;;;4998273;28;20111;-85
2023/08/27 06:18:04;;;;;;;3.28;1.05;;;15.40;99.90;;;;;;4981960;28;20030;-86
2023/08/27 06:20:30;;;;;;;1.92;0.80;;;15.40;99.90;;;;;;5014427;28;20470;-78
2023/08/27 06:22:56;;;;;;;4.00;0.98;;;15.40;99.90;;;;;;4997584;28;20545;-78
2023/08/27 06:25:22;;;;;;;2.35;0.98;;;15.40;99.90;;;;;;5014926;28;20034;-78
2023/08/27 06:27:48;;;;;;;2.45;0.90;;;15.50;99.90;;;;;;5015070;28;20389;-78
2023/08/27 06:30:14;;;;;;;2.70;0.82;;;15.50;99.90;;;;;;5014875;28;20041;-79
2023/08/27 06:32:40;;;;;;;3.17;0.98;;;15.50;99.90;;;;;;5013582;28;20033;-79
2023/08/27 06:35:06;;;;;;;2.22;0.70;;;15.50;99.90;;;;;;4980906;28;20532;-79
2023/08/27 06:37:31;;;;;;;3.33;1.00;;;15.60;99.90;;;;;;4997209;28;20121;-80
2023/08/27 06:39:57;;;;;;;3.92;1.10;;;15.60;99.90;;;;;;4996409;28;20084;-79
2023/08/27 06:42:23;;;;;;;2.15;1.00;;;15.60;99.90;;;;;;4996535;28;20105;-80
2023/08/27 06:44:48;;;;;;;3.72;1.05;;;15.60;99.90;;;;;;4961723;28;20026;-81
2023/08/27 06:47:14;;;;;;;3.65;1.23;;;15.50;99.90;;;;;;4961700;28;20030;-79
2023/08/27 06:49:40;;;;;;;3.47;1.05;;;15.50;99.90;;;;;;4977709;28;20015;-79
2023/08/27 06:52:05;;;;;;;3.97;1.05;;;15.60;99.90;;;;;;4944872;28;20045;-78
2023/08/27 06:54:31;;;;;;;3.13;1.40;;;15.60;99.90;;;;;;4977798;28;20050;-85
2023/08/27 06:56:57;;;;;;;3.60;1.70;;;15.60;99.90;;;;;;4945948;28;20045;-85
2023/08/27 06:59:22;;;;;;;3.28;1.30;;;15.60;99.90;;;;;;4961761;28;20371;-83
2023/08/27 07:01:48;;;;;;;4.07;1.30;;;15.60;99.90;;;;;;4975654;28;20121;-83
2023/08/27 07:04:14;;;;;;;5.63;1.55;;;15.60;99.90;;;;;;4996826;28;20418;-82
2023/08/27 07:06:39;;;;;;;3.13;1.50;;;15.70;99.90;;;;;;4981593;28;20128;-85
2023/08/27 07:09:05;;;;;;;5.43;2.08;;;15.70;99.90;;;;;;4982038;28;20409;-85
2023/08/27 07:11:33;;;;;;;5.95;1.85;;;15.70;99.90;;;;;;5012308;28;20041;-85
2023/08/27 07:13:59;;;;;;;4.30;1.73;;;15.70;99.90;;;;;;5009773;28;20547;-85
2023/08/27 07:16:26;;;;;;;4.57;1.50;;;15.80;99.90;;;;;;4997675;28;20116;-84
2023/08/27 07:18:52;;;;;;;6.90;1.90;;;15.80;99.90;;;;;;4978587;28;20034;-84
2023/08/27 07:21:18;;;;;;;7.53;2.35;;;15.90;99.90;;;;;;4994595;28;20038;-85
2023/08/27 07:23:43;;;;;;;5.13;1.65;;;16.00;99.90;;;;;;4980660;28;20405;-86
2023/08/27 07:26:09;;;;;;;7.20;2.33;;;16.00;99.90;;;;;;4993441;28;20038;-85
2023/08/27 07:28:35;;;;;;;6.47;2.60;;;16.10;99.90;;;;;;4995241;28;20026;-86
2023/08/27 07:31:00;;;;;;;8.23;2.63;;;16.20;99.90;;;;;;4962111;28;20030;-85
2023/08/27 07:33:27;;;;;;;5.50;2.60;;;16.20;99.90;;;;;;4978094;28;20057;-87
2023/08/27 07:35:53;;;;;;;5.03;1.70;;;16.20;99.90;;;;;;4995074;28;20028;-87
2023/08/27 07:38:18;;;;;;;3.70;1.80;;;16.30;99.90;;;;;;4961330;28;20460;-84
2023/08/27 07:40:45;;;;;;;6.00;2.63;;;16.40;99.90;;;;;;4961241;28;20141;-84
2023/08/27 07:43:10;;;;;;;6.22;2.08;;;16.40;99.90;;;;;;4977991;28;20034;-87
2023/08/27 07:45:36;;;;;;;4.20;1.77;;;16.50;99.90;;;;;;4977737;28;20037;-84
2023/08/27 07:48:02;;;;;;;8.32;2.30;;;16.50;99.90;;;;;;4961100;28;20019;-85
2023/08/27 07:50:27;;;;;;;8.60;2.50;;;16.60;99.90;;;;;;4993287;28;20033;-82
2023/08/27 07:52:53;;;;;;;5.28;2.38;;;16.70;99.90;;;;;;4976697;28;20034;-83
2023/08/27 07:55:19;;;;;;;4.53;2.20;;;16.70;99.90;;;;;;4993183;28;20026;-84
2023/08/27 07:57:45;;;;;;;4.40;2.00;;;16.70;99.90;;;;;;4993207;28;20105;-83
2023/08/27 08:00:13;;;;;;;6.03;2.50;;;16.80;99.90;;;;;;4960721;28;20468;-83
2023/08/27 08:02:40;;;;;;;7.40;2.63;;;16.90;99.90;;;;;;4986587;28;20053;-82
2023/08/27 08:05:06;;;;;;;6.60;2.17;;;17.10;99.90;;;;;;5001320;28;20030;-82
2023/08/27 08:07:34;;;;;;;6.72;2.45;;;17.10;99.90;;;;;;5019820;28;20100;-83
2023/08/27 08:10:00;;;;;;;6.57;2.70;;;17.20;99.90;;;;;;5019236;28;20481;-81
2023/08/27 08:12:25;;;;;;;5.32;2.72;;;17.20;99.90;;;;;;5002642;28;20030;-82
2023/08/27 08:14:52;;;;;;;7.82;2.75;;;17.30;99.90;;;;;;5001962;28;20386;-82
2023/08/27 08:17:17;;;;;;;7.50;3.05;;;17.30;99.90;;;;;;5002649;28;20124;-82
2023/08/27 08:19:43;;;;;;;8.85;3.15;;;17.30;99.90;;;;;;5020166;28;20076;-83
2023/08/27 08:22:09;;;;;;;8.15;3.90;;;17.40;99.90;;;;;;4986562;28;20334;-80
2023/08/27 08:24:35;;;;;;;8.05;3.65;;;17.40;99.90;;;;;;5009331;28;20018;-85
2023/08/27 08:27:02;;;;;;;5.57;3.10;;;17.50;99.90;;;;;;4983070;28;20022;-82
2023/08/27 08:29:34;;;;;;;9.48;3.97;;;17.60;99.90;;;;;;4983009;28;20026;-82
2023/08/27 08:32:00;;;;;;;6.13;4.18;;;17.60;99.90;;;;;;4983639;28;20046;-88
2023/08/27 08:34:27;;;;;;;9.85;4.47;;;17.70;99.90;;;;;;4982871;28;20084;-81
2023/08/27 08:36:53;;;;;;;5.78;3.47;;;17.70;99.90;;;;;;4982806;28;20026;-81
2023/08/27 08:39:19;;;;;;;8.15;4.13;;;17.80;99.90;;;;;;4966764;28;20474;-83
2023/08/27 08:42:02;;;;;;;5.65;3.70;;;17.80;99.90;;;;;;4950600;28;20034;-81
2023/08/27 08:44:45;;;;;;;7.35;3.53;;;17.90;99.90;;;;;;4967562;28;20021;-86
2023/08/27 08:47:13;;;;;;;7.70;3.60;;;18.00;99.90;;;;;;4999543;28;20034;-83
2023/08/27 08:49:44;;;;;;;4.97;2.88;;;17.90;99.90;;;;;;4983142;28;20517;-86
2023/08/27 08:52:16;;;;;;;6.90;2.85;;;18.00;99.90;;;;;;4982976;28;20113;-83
2023/08/27 08:54:45;;;;;;;5.82;2.90;;;18.00;99.80;;;;;;4982856;28;20513;-82
2023/08/27 08:57:13;;;;;;;4.35;2.60;;;18.00;99.30;;;;;;4982903;28;20498;-84
2023/08/27 08:59:40;;;;;;;5.68;2.80;;;18.00;99.60;;;;;;4982452;28;20053;-82
2023/08/27 09:02:10;;;;;;;5.43;2.53;;;18.10;99.60;;;;;;4966478;28;20035;-81
2023/08/27 09:04:36;;;;;;;3.13;1.80;;;18.10;99.20;;;;;;5002422;28;20022;-84
2023/08/27 09:07:04;;;;;;;4.30;2.03;;;18.10;98.90;;;;;;5001555;28;20049;-84
2023/08/27 09:09:32;;;;;;;4.18;2.05;;;18.20;98.40;;;;;;5001955;28;20050;-83
2023/08/27 09:12:04;;;;;;;5.88;1.83;;;18.30;97.50;;;;;;5019405;28;20057;-83
2023/08/27 09:14:31;;;;;;;4.30;1.45;;;18.30;97.60;;;;;;4999153;28;20018;-83
2023/08/27 09:16:57;;;;;;;5.20;1.63;;;18.40;97.00;;;;;;4947874;28;20065;-85
2023/08/27 09:19:23;;;;;;;3.80;1.40;;;18.50;97.00;;;;;;4972048;28;20041;-82
2023/08/27 09:21:49;;;;;;;6.80;2.03;;;18.60;96.70;;;;;;5015394;28;20034;-85
2023/08/27 09:24:15;;;;;;;6.20;1.52;;;18.70;96.40;;;;;;4983729;28;20017;-87
2023/08/27 09:26:42;;;;;;;3.45;1.70;;;18.70;96.10;;;;;;4999321;28;20034;-90
2023/08/27 09:29:08;;;;;;;5.20;2.00;;;18.80;95.70;;;;;;4967031;28;20026;-84
2023/08/27 09:31:42;;;;;;;3.97;1.80;;;18.80;94.80;;;;;;4982242;28;20056;-82
2023/08/27 09:34:12;;;;;;;4.93;2.15;;;18.90;94.70;;;;;;4999175;28;20057;-86
2023/08/27 09:36:38;;;;;;;3.50;1.90;;;18.90;93.70;;;;;;5015010;28;20026;-83
2023/08/27 09:39:11;;;;;;;4.32;1.55;;;18.90;93.40;;;;;;4998865;28;20088;-83
2023/08/27 09:41:42;;;;;;;3.97;1.20;;;18.80;93.00;;;;;;4995745;28;20057;-83
2023/08/27 09:44:08;;;;;;;4.68;1.50;;;18.80;92.80;;;;;;4995882;28;20265;-79
2023/08/27 09:46:34;;;;;;;2.88;1.38;;;18.80;92.70;;;;;;4981549;28;20036;-79
2023/08/27 09:49:04;;;;;;;3.15;1.10;;;18.80;92.90;;;;;;5014560;28;20022;-80
2023/08/27 09:51:38;;;;;;;2.97;1.10;;;18.90;93.10;;;;;;5015757;28;20440;-79
2023/08/27 09:54:27;;;;;;;5.85;1.02;;;19.10;93.00;;;;;;5015686;28;20022;-78
2023/08/27 09:56:59;;;;;;;4.00;1.08;;;19.20;92.10;;;;;;4998068;28;20026;-79
2023/08/27 09:59:25;;;;;;;4.03;1.00;;;19.30;91.90;;;;;;4999080;28;20032;-80
2023/08/27 10:01:52;;;;;;;5.10;1.20;;;19.50;92.10;;;;;;5015258;28;20030;-80
2023/08/27 10:04:19;;;;;;;3.15;1.20;;;19.60;91.70;;;;;;5015359;28;20025;-83
2023/08/27 10:06:45;;;;;;;4.13;1.08;;;19.80;91.10;;;;;;4997766;28;20049;-82
2023/08/27 10:09:11;;;;;;;3.15;1.10;;;19.90;90.60;;;;;;5015553;28;20029;-83
2023/08/27 10:11:38;;;;;;;1.88;0.80;;;20.10;90.70;;;;;;4997898;28;20030;-83
2023/08/27 10:14:04;;;;;;;4.63;0.77;;;20.30;90.10;;;;;;4997894;28;20029;-83
2023/08/27 10:16:36;;;;;;;2.45;0.80;;;20.40;88.50;;;;;;4998312;28;20486;-82
2023/08/27 10:19:03;;;;;;;2.72;0.70;;;20.40;86.80;;;;;;4998739;28;20056;-83
2023/08/27 10:21:30;;;;;;;1.83;0.70;;;20.30;86.60;;;;;;4997658;28;20018;-82
2023/08/27 10:23:59;;;;;;;5.18;0.85;;;20.30;86.40;;;;;;4998854;28;20041;-82
2023/08/27 10:26:25;;;;;;;1.80;0.50;;;20.30;85.30;;;;;;4998689;28;20022;-79
2023/08/27 10:28:54;;;;;;;0.95;0.30;;;20.30;81.70;;;;;;5013457;28;20033;-80
2023/08/27 10:31:20;;;;;;;1.70;0.35;;;20.20;75.40;;;;;;4997796;28;20489;-85
2023/08/27 10:33:45;;;;;;;1.17;0.28;;;20.20;75.20;;;;;;4997421;28;20036;-85
2023/08/27 10:36:25;;;;;;;0.45;0.20;;;20.10;74.10;;;;;;5015718;28;20025;-85
2023/08/27 10:38:52;;;;;;;1.17;0.30;;;19.90;72.40;;;;;;4997730;28;20022;-83
2023/08/27 10:41:19;;;;;;;1.27;0.30;;;19.70;71.20;;;;;;4997148;28;20022;-84
2023/08/27 10:43:45;;;;;;;1.02;0.20;;;19.60;73.10;;;;;;4981272;28;20113;-84
2023/08/27 10:46:15;;;;;;;0.75;0.15;;;20.00;75.30;;;;;;4997375;28;20153;-82
2023/08/27 10:48:48;;;;;;;0.90;0.30;;;20.40;73.60;;;;;;4997127;28;20490;-85
2023/08/27 10:51:15;;;;;;;1.80;0.38;;;20.30;72.00;;;;;;4997171;28;20072;-83
2023/08/27 10:53:50;;;;;;;2.08;0.30;;;20.00;72.70;;;;;;4997377;28;20470;-85
2023/08/27 10:56:34;;;;;;;1.27;0.47;;;19.80;73.60;;;;;;4997638;28;20018;-83
2023/08/27 10:59:09;;;;;;;2.72;0.40;;;19.60;75.00;;;;;;4997154;28;20045;-83
2023/08/27 11:01:53;;;;;;;1.10;0.30;;;19.60;76.00;;;;;;4997133;28;20109;-84
2023/08/27 11:04:19;;;;;;;0.68;0.30;;;19.90;77.20;;;;;;4998060;28;20048;-85
2023/08/27 11:06:46;;;;;;;2.50;0.30;;;20.40;77.30;;;;;;4997644;28;20542;-85
2023/08/27 11:09:18;;;;;;;1.60;0.32;;;20.90;77.70;;;;;;4996986;28;20018;-86
2023/08/27 11:12:03;;;;;;;1.58;0.30;;;21.50;76.30;;;;;;4997021;28;20025;-82
2023/08/27 11:14:35;;;;;;;1.08;0.30;;;21.70;74.50;;;;;;4997421;28;20029;-82
2023/08/27 11:17:05;;;;;;;1.10;0.30;;;21.50;72.40;;;;;;4996573;28;20109;-80
2023/08/27 11:19:37;;;;;;;2.40;0.50;;;21.20;72.20;;;;;;4996582;28;20029;-79
2023/08/27 11:22:19;;;;;;;2.33;0.55;;;20.80;72.10;;;;;;4996277;28;20029;-80
2023/08/27 11:24:48;;;;;;;2.70;0.40;;;20.30;72.60;;;;;;4996335;28;20025;-79
2023/08/27 11:27:19;;;;;;;1.58;0.47;;;19.90;72.90;;;;;;4996600;28;20076;-76
2023/08/27 11:29:51;;;;;;;2.22;0.68;;;19.50;73.90;;;;;;4996545;28;20022;-77
2023/08/27 11:32:19;;;;;;;4.72;0.80;;;19.00;75.30;;;;;;4996621;28;20042;-79
2023/08/27 11:34:48;;;;;;;12.88;1.40;;;18.50;83.10;;;;;;5014027;28;20038;-78
2023/08/27 11:37:13;;;;;;;4.13;1.02;;;17.80;85.70;;;;;;4996384;28;20390;-79
2023/08/27 11:39:40;;;;;;;2.92;1.38;;;17.10;88.10;;;;;;4995959;28;20026;-78
2023/08/27 11:42:10;;;;;;;3.83;1.52;;;16.50;89.90;;;;;;4996159;28;20101;-77
2023/08/27 11:44:48;;;;;;;6.78;1.38;;;16.10;90.70;;;;;;5013783;28;20014;-78
2023/08/27 11:47:13;;;;;;;3.80;1.00;;;15.90;91.80;;;;;;4996051;28;20022;-76
2023/08/27 11:49:39;;;;;;;5.30;1.10;;;15.60;92.00;;;;;;4996154;28;20429;-77
2023/08/27 11:52:05;;;;;;;2.95;0.90;;;15.40;92.40;;;;;;4996301;28;20064;-77
2023/08/27 11:54:34;;;;;;;4.30;0.90;;;15.30;92.80;;;;;;5012522;28;20425;-76
2023/08/27 11:57:02;;;;;;;2.10;1.00;;;15.30;93.10;;;;;;4995935;28;20429;-76
2023/08/27 11:59:31;;;;;;;1.25;0.60;;;15.30;93.60;;;;;;5013622;28;20040;-76
2023/08/27 12:01:57;;;;;;;2.22;0.70;;;15.30;94.10;;;;;;4995974;28;20113;-77
2023/08/27 12:04:27;;;;;;;2.70;0.73;;;15.40;94.40;;;;;;4995817;28;20028;-76
2023/08/27 12:06:56;;;;;;;1.67;0.98;;;15.50;94.80;;;;;;4995751;28;20433;-76
2023/08/27 12:09:28;;;;;;;3.25;0.70;;;15.50;95.10;;;;;;4995902;28;20018;-76
2023/08/27 12:11:57;;;;;;;3.42;0.90;;;15.60;95.70;;;;;;5013313;28;20030;-76
2023/08/27 12:14:25;;;;;;;1.77;1.00;;;15.80;96.60;;;;;;5013780;28;20026;-76
2023/08/27 12:16:51;;;;;;;1.75;0.80;;;16.20;98.30;;;;;;5012455;28;20482;-77
2023/08/27 12:19:21;;;;;;;1.95;1.00;;;16.90;99.90;;;;;;5013301;28;20018;-76
2023/08/27 12:21:51;;;;;;;2.88;0.82;;;17.50;99.90;;;;;;4995533;28;20073;-77
2023/08/27 12:24:30;;;;;;;2.42;0.93;;;17.90;99.90;;;;;;4995740;28;20474;-81
2023/08/27 12:27:06;;;;;;;2.80;0.90;;;18.50;99.90;;;;;;4995731;28;20448;-81
2023/08/27 12:29:35;;;;;;;1.58;0.80;;;19.00;99.90;;;;;;5013339;28;20489;-80
2023/08/27 12:32:08;;;;;;;2.80;0.88;;;19.70;99.90;;;;;;5013314;28;20109;-79
2023/08/27 12:34:38;;;;;;;1.70;0.82;;;20.30;99.90;;;;;;4995501;28;20030;-80
2023/08/27 12:37:05;;;;;;;1.55;0.57;;;21.10;99.90;;;;;;4995125;28;20393;-80
2023/08/27 12:39:31;;;;;;;1.83;0.70;;;21.60;99.90;;;;;;5012410;28;20447;-78
2023/08/27 12:41:58;;;;;;;1.48;0.50;;;22.10;99.90;;;;;;5012485;28;20080;-78
2023/08/27 12:44:24;;;;;;;1.52;0.60;;;22.40;99.90;;;;;;5011441;28;20033;-79
2023/08/27 12:46:50;;;;;;;0.90;0.40;;;22.60;99.90;;;;;;5011495;28;20026;-79
2023/08/27 12:49:15;;;;;;;0.85;0.30;;;22.70;99.90;;;;;;4994945;28;20026;-83